createdAt,value
2023-03-06T00:02:34.428Z,58.14
2023-03-06T00:05:36.071Z,58.27
2023-03-06T00:08:37.577Z,58.28
2023-03-06T00:11:39.080Z,58.36
2023-03-06T00:14:40.586Z,58.81
2023-03-06T00:17:42.157Z,58.38
2023-03-06T00:20:44.462Z,58.44
2023-03-06T00:23:45.889Z,58.45
2023-03-06T00:26:47.447Z,58.57
2023-03-06T00:29:49.735Z,58.54
2023-03-06T00:32:52.907Z,58.65
2023-03-06T00:35:54.512Z,58.60
2023-03-06T00:38:56.029Z,58.72
2023-03-06T00:41:59.823Z,58.70
2023-03-06T00:45:01.333Z,58.74
2023-03-06T00:48:02.971Z,58.81
2023-03-06T00:51:04.703Z,58.83
2023-03-06T00:54:06.200Z,58.75
2023-03-06T00:57:08.141Z,58.81
2023-03-06T01:00:11.010Z,58.72
2023-03-06T01:03:12.611Z,58.72
2023-03-06T01:06:14.322Z,58.83
2023-03-06T01:09:15.949Z,58.90
2023-03-06T01:12:17.473Z,58.70
2023-03-06T01:15:19.255Z,58.75
2023-03-06T01:18:20.778Z,58.85
2023-03-06T01:21:22.280Z,58.97
2023-03-06T01:24:25.621Z,59.07
2023-03-06T01:27:30.871Z,59.11
2023-03-06T01:30:32.372Z,59.37
2023-03-06T01:33:36.603Z,59.29
2023-03-06T01:36:38.104Z,59.32
2023-03-06T01:39:39.866Z,59.25
2023-03-06T01:42:42.041Z,59.25
2023-03-06T01:45:49.405Z,59.22
2023-03-06T01:49:02.498Z,59.14
2023-03-06T01:52:08.950Z,59.24
2023-03-06T01:55:16.016Z,59.19
2023-03-06T01:58:18.869Z,59.42
2023-03-06T02:01:21.143Z,59.34
2023-03-06T02:04:23.666Z,59.48
2023-03-06T02:07:25.672Z,59.49
2023-03-06T02:10:27.188Z,59.37
2023-03-06T02:13:29.728Z,59.40
2023-03-06T02:16:33.511Z,59.39
2023-03-06T02:20:02.916Z,59.45
2023-03-06T02:23:16.612Z,59.44
2023-03-06T02:26:19.268Z,59.39
2023-03-06T02:29:27.434Z,59.39
2023-03-06T02:32:30.909Z,59.27
2023-03-06T02:35:35.953Z,59.17
2023-03-06T02:38:45.418Z,59.08
2023-03-06T02:41:46.968Z,59.16
2023-03-06T02:44:52.318Z,58.96
2023-03-06T02:47:53.824Z,58.97
2023-03-06T02:50:55.314Z,59.01
2023-03-06T02:53:56.810Z,58.83
2023-03-06T02:56:58.357Z,58.92
2023-03-06T03:00:00.975Z,58.78
2023-03-06T03:03:02.922Z,58.91
2023-03-06T03:06:06.870Z,58.76
2023-03-06T03:09:09.916Z,58.91
2023-03-06T03:12:11.501Z,58.77
2023-03-06T03:15:13.873Z,58.80
2023-03-06T03:18:15.442Z,58.86
2023-03-06T03:21:18.058Z,58.79
2023-03-06T03:24:21.727Z,58.83
2023-03-06T03:27:23.268Z,58.94
2023-03-06T03:30:24.959Z,58.89
2023-03-06T03:33:26.734Z,58.69
2023-03-06T03:36:28.468Z,58.71
2023-03-06T03:39:30.561Z,58.55
2023-03-06T03:42:32.183Z,58.38
2023-03-06T03:45:33.752Z,58.34
2023-03-06T03:48:35.210Z,58.35
2023-03-06T03:51:36.986Z,58.31
2023-03-06T03:54:38.532Z,58.28
2023-03-06T03:57:40.145Z,58.21
2023-03-06T04:00:42.384Z,58.26
2023-03-06T04:03:48.351Z,58.29
2023-03-06T04:06:51.131Z,58.47
2023-03-06T04:09:54.128Z,58.60
2023-03-06T04:12:55.740Z,58.46
2023-03-06T04:15:59.665Z,58.55
2023-03-06T04:19:02.759Z,58.73
2023-03-06T04:22:04.435Z,58.70
2023-03-06T04:25:09.175Z,58.66
2023-03-06T04:28:11.515Z,58.76
2023-03-06T04:31:13.517Z,58.71
2023-03-06T04:34:15.043Z,58.77
2023-03-06T04:37:22.545Z,58.84
2023-03-06T04:40:29.749Z,58.81
2023-03-06T04:43:31.345Z,58.82
2023-03-06T04:46:33.083Z,58.85
2023-03-06T04:49:34.634Z,58.86
2023-03-06T04:52:36.235Z,58.80
2023-03-06T04:55:37.691Z,59.15
2023-03-06T04:58:39.242Z,58.77
2023-03-06T05:01:40.729Z,58.75
2023-03-06T05:04:42.289Z,58.67
2023-03-06T05:07:44.808Z,58.75
2023-03-06T05:10:46.900Z,58.80
2023-03-06T05:13:49.292Z,58.44
2023-03-06T05:16:50.911Z,58.67
2023-03-06T05:19:52.548Z,58.60
2023-03-06T05:22:54.716Z,58.59
2023-03-06T05:25:56.878Z,58.50
2023-03-06T05:28:58.437Z,58.69
2023-03-06T05:32:00.025Z,58.51
2023-03-06T05:35:01.996Z,58.50
2023-03-06T05:38:03.551Z,58.58
2023-03-06T05:41:05.293Z,58.75
2023-03-06T05:44:06.911Z,58.46
2023-03-06T05:47:09.127Z,58.71
2023-03-06T05:50:11.754Z,58.69
2023-03-06T05:53:13.265Z,58.84
2023-03-06T05:56:14.755Z,58.95
2023-03-06T05:59:16.317Z,59.04
2023-03-06T06:02:18.915Z,59.05
2023-03-06T06:05:20.483Z,59.21
2023-03-06T06:08:22.007Z,59.38
2023-03-06T06:11:23.470Z,59.08
2023-03-06T06:14:28.879Z,59.22
2023-03-06T06:17:31.525Z,59.20
2023-03-06T06:20:33.042Z,59.30
2023-03-06T06:23:34.666Z,59.23
2023-03-06T06:26:36.122Z,59.25
2023-03-06T06:29:37.658Z,59.36
2023-03-06T06:32:39.324Z,59.33
2023-03-06T06:35:40.846Z,59.16
2023-03-06T06:38:42.958Z,59.38
2023-03-06T06:42:02.278Z,59.59
2023-03-06T06:45:11.476Z,59.50
2023-03-06T06:48:13.014Z,59.29
2023-03-06T06:51:14.649Z,59.33
2023-03-06T06:54:16.179Z,59.16
2023-03-06T06:57:17.685Z,59.02
2023-03-06T07:00:19.710Z,59.13
2023-03-06T07:03:21.205Z,58.86
2023-03-06T07:06:23.054Z,58.82
2023-03-06T07:09:24.956Z,58.95
2023-03-06T07:12:26.407Z,58.95
2023-03-06T07:15:29.841Z,58.93
2023-03-06T07:18:31.431Z,58.83
2023-03-06T07:21:33.069Z,58.79
2023-03-06T07:24:34.525Z,58.64
2023-03-06T07:27:36.010Z,58.71
2023-03-06T07:30:39.826Z,58.54
2023-03-06T07:33:41.306Z,58.35
2023-03-06T07:36:42.860Z,58.26
2023-03-06T07:39:44.334Z,58.23
2023-03-06T07:42:46.242Z,58.29
2023-03-06T07:45:59.574Z,58.12
2023-03-06T07:49:01.031Z,58.18
2023-03-06T07:52:02.615Z,58.13
2023-03-06T07:55:04.747Z,58.25
2023-03-06T07:58:06.174Z,58.16
2023-03-06T08:01:10.945Z,58.16
2023-03-06T08:04:12.510Z,58.26
2023-03-06T08:07:14.038Z,58.28
2023-03-06T08:10:16.571Z,58.20
2023-03-06T08:13:18.053Z,58.33
2023-03-06T08:16:26.610Z,58.26
2023-03-06T08:19:28.152Z,58.21
2023-03-06T08:22:29.612Z,58.50
2023-03-06T08:25:31.064Z,58.35
2023-03-06T08:28:33.076Z,58.32
2023-03-06T08:31:37.238Z,58.37
2023-03-06T08:34:40.979Z,58.38
2023-03-06T08:37:42.535Z,58.38
2023-03-06T08:40:44.054Z,58.22
2023-03-06T08:43:45.550Z,58.52
2023-03-06T08:46:47.052Z,59.07
2023-03-06T08:49:48.575Z,58.62
2023-03-06T08:52:50.027Z,58.69
2023-03-06T08:55:51.952Z,58.65
2023-03-06T08:58:54.580Z,58.64
2023-03-06T09:01:56.148Z,58.57
2023-03-06T09:04:59.339Z,58.46
2023-03-06T09:08:00.916Z,58.47
2023-03-06T09:11:02.543Z,58.56
2023-03-06T09:14:05.427Z,58.42
2023-03-06T09:17:06.878Z,58.19
2023-03-06T09:20:10.692Z,58.39
2023-03-06T09:23:12.168Z,58.72
2023-03-06T09:26:15.944Z,58.38
2023-03-06T09:29:17.514Z,58.49
2023-03-06T09:32:19.221Z,58.36
2023-03-06T09:35:20.725Z,58.04
2023-03-06T09:38:27.345Z,58.11
2023-03-06T09:41:32.960Z,58.13
2023-03-06T09:44:38.059Z,58.07
2023-03-06T09:48:14.911Z,58.05
2023-03-06T09:51:22.152Z,57.96
2023-03-06T09:54:44.160Z,57.86
2023-03-06T09:58:02.307Z,57.86
2023-03-06T10:01:10.845Z,57.70
2023-03-06T10:04:40.329Z,57.56
2023-03-06T10:08:00.770Z,57.64
2023-03-06T10:11:08.534Z,57.84
2023-03-06T10:14:21.891Z,57.81
2023-03-06T10:17:26.150Z,57.94
2023-03-06T10:20:34.948Z,57.91
2023-03-06T10:23:53.848Z,57.88
2023-03-06T10:27:03.788Z,58.38
2023-03-06T10:30:24.032Z,59.17
2023-03-06T10:33:59.204Z,59.79
2023-03-06T10:37:12.793Z,60.14
2023-03-06T10:40:24.608Z,60.53
2023-03-06T10:43:27.374Z,60.58
2023-03-06T10:46:31.041Z,60.75
2023-03-06T10:49:35.618Z,60.78
2023-03-06T10:52:37.161Z,60.87
2023-03-06T10:55:39.916Z,60.86
2023-03-06T10:58:41.336Z,60.83
2023-03-06T11:01:50.866Z,60.72
2023-03-06T11:04:54.165Z,60.74
2023-03-06T11:07:59.300Z,60.71
2023-03-06T11:11:02.375Z,60.67
2023-03-06T11:14:15.843Z,60.55
2023-03-06T11:17:28.846Z,60.48
2023-03-06T11:20:48.548Z,60.38
2023-03-06T11:23:56.227Z,60.67
2023-03-06T11:27:01.695Z,60.54
2023-03-06T11:30:07.581Z,60.45
2023-03-06T11:33:49.572Z,60.35
2023-03-06T11:37:00.699Z,60.41
2023-03-06T11:40:13.060Z,60.06
2023-03-06T11:43:25.550Z,60.20
2023-03-06T11:46:32.970Z,60.12
2023-03-06T11:49:44.183Z,60.10
2023-03-06T11:53:07.047Z,60.13
2023-03-06T11:56:31.897Z,60.07
2023-03-06T12:00:01.188Z,60.03
2023-03-06T12:03:45.994Z,59.98
2023-03-06T12:07:07.621Z,59.98
2023-03-06T12:10:29.824Z,59.93
2023-03-06T12:13:38.218Z,59.90
2023-03-06T12:16:48.766Z,59.99
2023-03-06T12:20:05.140Z,59.97
2023-03-06T12:23:29.663Z,60.05
2023-03-06T12:26:40.207Z,60.15
2023-03-06T12:29:53.698Z,59.96
2023-03-06T12:33:07.422Z,60.10
2023-03-06T12:36:14.833Z,60.21
2023-03-06T12:39:35.634Z,60.06
2023-03-06T12:42:40.259Z,60.04
2023-03-06T12:45:44.140Z,60.26
2023-03-06T12:48:53.159Z,60.10
2023-03-06T12:51:56.675Z,59.97
2023-03-06T12:55:05.707Z,60.04
2023-03-06T12:58:47.586Z,60.01
2023-03-06T13:01:49.033Z,59.98
2023-03-06T13:05:18.475Z,60.07
2023-03-06T13:08:44.264Z,60.04
2023-03-06T13:11:53.456Z,60.09
2023-03-06T13:15:00.475Z,60.18
2023-03-06T13:18:21.909Z,60.32
2023-03-06T13:21:41.832Z,60.45
2023-03-06T13:24:45.416Z,60.61
2023-03-06T13:27:46.896Z,60.70
2023-03-06T13:30:48.426Z,60.67
2023-03-06T13:33:52.340Z,60.74
2023-03-06T13:37:13.798Z,60.84
2023-03-06T13:40:24.741Z,60.68
2023-03-06T13:43:26.299Z,60.83
2023-03-06T13:46:35.077Z,60.82
2023-03-06T13:49:46.478Z,60.96
2023-03-06T13:52:56.105Z,61.30
2023-03-06T13:56:31.325Z,61.85
2023-03-06T14:00:03.143Z,62.21
2023-03-06T14:03:42.849Z,62.36
2023-03-06T14:07:24.610Z,62.48
2023-03-06T14:10:26.494Z,62.83
2023-03-06T14:13:47.853Z,63.33
2023-03-06T14:16:50.947Z,63.07
2023-03-06T14:19:52.573Z,63.15
2023-03-06T14:22:54.040Z,63.22
2023-03-06T14:26:17.380Z,63.25
2023-03-06T14:29:27.432Z,63.24
2023-03-06T14:32:30.153Z,63.41
2023-03-06T14:35:34.273Z,63.44
2023-03-06T14:38:42.609Z,63.54
2023-03-06T14:41:44.083Z,63.75
2023-03-06T14:44:47.361Z,63.90
2023-03-06T14:47:53.365Z,64.16
2023-03-06T14:50:58.041Z,64.24
2023-03-06T14:54:01.898Z,64.28
2023-03-06T14:57:08.418Z,64.35
2023-03-06T15:00:17.285Z,64.39
2023-03-06T15:03:27.467Z,64.57
2023-03-06T15:06:36.078Z,64.65
2023-03-06T15:09:38.609Z,64.73
2023-03-06T15:12:40.244Z,64.72
2023-03-06T15:15:41.724Z,64.78
2023-03-06T15:19:01.342Z,64.60
2023-03-06T15:22:02.956Z,64.61
2023-03-06T15:25:08.627Z,64.58
2023-03-06T15:28:31.334Z,64.58
2023-03-06T15:31:33.046Z,64.45
2023-03-06T15:34:34.548Z,64.58
2023-03-06T15:37:36.040Z,64.55
2023-03-06T15:40:37.528Z,64.42
2023-03-06T15:43:39.761Z,64.43
2023-03-06T15:46:41.802Z,64.44
2023-03-06T15:49:43.303Z,64.31
2023-03-06T15:52:45.950Z,63.97
2023-03-06T15:55:47.644Z,64.09
2023-03-06T15:58:49.151Z,64.12
2023-03-06T16:01:51.939Z,63.99
2023-03-06T16:04:53.600Z,64.21
2023-03-06T16:07:55.882Z,64.06
2023-03-06T16:10:58.036Z,63.99
2023-03-06T16:14:01.347Z,63.93
2023-03-06T16:17:02.808Z,63.82
2023-03-06T16:20:06.053Z,63.79
2023-03-06T16:23:10.314Z,63.77
2023-03-06T16:26:20.948Z,63.45
2023-03-06T16:29:24.603Z,63.56
2023-03-06T16:32:28.599Z,63.97
2023-03-06T16:35:30.487Z,63.56
2023-03-06T16:38:31.963Z,63.24
2023-03-06T16:41:33.522Z,63.34
2023-03-06T16:44:35.030Z,63.16
2023-03-06T16:47:36.945Z,63.16
2023-03-06T16:50:39.902Z,63.09
2023-03-06T16:53:42.039Z,63.03
2023-03-06T16:56:44.241Z,62.81
2023-03-06T16:59:45.695Z,62.67
2023-03-06T17:02:51.626Z,62.67
2023-03-06T17:05:53.142Z,62.75
2023-03-06T17:08:54.714Z,62.61
2023-03-06T17:11:56.368Z,62.60
2023-03-06T17:14:57.856Z,62.57
2023-03-06T17:17:59.402Z,62.39
2023-03-06T17:21:00.975Z,62.41
2023-03-06T17:24:03.645Z,62.34
2023-03-06T17:27:05.307Z,62.37
2023-03-06T17:30:07.585Z,62.21
2023-03-06T17:33:09.053Z,62.28
2023-03-06T17:36:11.196Z,62.26
2023-03-06T17:39:12.868Z,62.64
2023-03-06T17:42:14.452Z,62.31
2023-03-06T17:45:16.140Z,62.22
2023-03-06T17:48:17.690Z,62.23
2023-03-06T17:51:19.173Z,62.29
2023-03-06T17:54:20.776Z,62.15
2023-03-06T17:57:22.333Z,62.03
2023-03-06T18:00:23.892Z,62.12
2023-03-06T18:03:25.647Z,62.04
2023-03-06T18:06:30.016Z,62.14
2023-03-06T18:09:32.082Z,62.11
2023-03-06T18:12:33.691Z,61.98
2023-03-06T18:15:38.958Z,62.04
2023-03-06T18:18:40.664Z,61.95
2023-03-06T18:21:42.442Z,61.91
2023-03-06T18:24:43.987Z,61.85
2023-03-06T18:27:46.347Z,61.80
2023-03-06T18:30:47.826Z,61.80
2023-03-06T18:33:49.838Z,61.84
2023-03-06T18:36:52.766Z,61.74
2023-03-06T18:39:54.794Z,62.14
2023-03-06T18:42:56.296Z,62.26
2023-03-06T18:45:58.040Z,62.66
2023-03-06T18:49:00.216Z,62.76
2023-03-06T18:52:01.805Z,63.04
2023-03-06T18:55:03.608Z,62.99
2023-03-06T18:58:05.055Z,63.02
2023-03-06T19:01:07.418Z,63.20
2023-03-06T19:04:09.002Z,63.04
2023-03-06T19:07:12.754Z,63.16
2023-03-06T19:10:14.318Z,62.98
2023-03-06T19:13:15.927Z,63.15
2023-03-06T19:16:19.559Z,63.20
2023-03-06T19:19:26.012Z,63.19
2023-03-06T19:22:27.530Z,63.24
2023-03-06T19:25:29.004Z,63.18
2023-03-06T19:28:30.588Z,63.14
2023-03-06T19:31:32.202Z,62.96
2023-03-06T19:34:33.823Z,62.88
2023-03-06T19:37:36.367Z,62.85
2023-03-06T19:40:38.201Z,62.48
2023-03-06T19:43:41.594Z,62.48
2023-03-06T19:46:43.522Z,62.39
2023-03-06T19:49:44.996Z,62.36
2023-03-06T19:52:46.512Z,62.16
2023-03-06T19:55:48.032Z,62.09
2023-03-06T19:58:49.573Z,61.98
2023-03-06T20:01:51.035Z,62.07
2023-03-06T20:04:53.849Z,61.56
2023-03-06T20:07:55.416Z,61.83
2023-03-06T20:10:56.956Z,61.66
2023-03-06T20:14:00.512Z,61.64
2023-03-06T20:17:02.249Z,61.68
2023-03-06T20:20:04.128Z,61.46
2023-03-06T20:23:06.191Z,61.55
2023-03-06T20:26:10.234Z,61.46
2023-03-06T20:29:12.390Z,61.37
2023-03-06T20:32:13.928Z,61.36
2023-03-06T20:35:15.465Z,61.29
2023-03-06T20:38:16.995Z,61.09
2023-03-06T20:41:21.859Z,61.42
2023-03-06T20:44:23.357Z,61.13
2023-03-06T20:47:24.881Z,61.14
2023-03-06T20:50:26.718Z,61.13
2023-03-06T20:53:28.514Z,61.16
2023-03-06T20:56:32.791Z,61.18
2023-03-06T20:59:34.399Z,61.22
2023-03-06T21:02:35.934Z,61.29
2023-03-06T21:05:37.406Z,61.30
2023-03-06T21:08:38.905Z,61.33
2023-03-06T21:11:40.459Z,61.43
2023-03-06T21:14:41.940Z,61.46
2023-03-06T21:17:43.653Z,61.30
2023-03-06T21:20:45.158Z,61.34
2023-03-06T21:23:48.111Z,61.36
2023-03-06T21:26:51.132Z,61.40
2023-03-06T21:29:52.718Z,61.54
2023-03-06T21:32:54.202Z,61.46
2023-03-06T21:35:55.722Z,61.39
2023-03-06T21:38:57.372Z,61.38
2023-03-06T21:41:58.815Z,61.36
2023-03-06T21:45:00.283Z,61.29
2023-03-06T21:48:02.224Z,61.27
2023-03-06T21:51:23.997Z,61.22
2023-03-06T21:54:26.868Z,61.08
2023-03-06T21:57:28.384Z,60.98
2023-03-06T22:00:29.847Z,60.98
2023-03-06T22:03:31.290Z,60.84
2023-03-06T22:06:32.866Z,60.76
2023-03-06T22:09:36.785Z,60.71
2023-03-06T22:12:39.874Z,60.72
2023-03-06T22:15:49.797Z,60.70
2023-03-06T22:18:51.787Z,60.39
2023-03-06T22:21:53.350Z,60.50
2023-03-06T22:24:54.844Z,60.47
2023-03-06T22:27:56.299Z,60.35
2023-03-06T22:31:12.784Z,60.26
2023-03-06T22:34:14.331Z,60.21
2023-03-06T22:37:16.016Z,60.07
2023-03-06T22:40:17.632Z,60.07
2023-03-06T22:43:19.956Z,60.02
2023-03-06T22:46:21.486Z,60.18
2023-03-06T22:49:22.966Z,60.50
2023-03-06T22:52:24.530Z,60.70
2023-03-06T22:55:26.508Z,60.07
2023-03-06T22:58:34.187Z,60.11
2023-03-06T23:01:35.806Z,60.21
2023-03-06T23:04:37.415Z,60.26
2023-03-06T23:07:38.937Z,60.09
2023-03-06T23:10:40.366Z,60.23
2023-03-06T23:14:01.375Z,60.19
2023-03-06T23:17:21.474Z,60.14
2023-03-06T23:20:43.433Z,60.13
2023-03-06T23:24:04.267Z,60.21
2023-03-06T23:27:05.869Z,60.10
2023-03-06T23:30:09.120Z,59.99
2023-03-06T23:33:10.865Z,60.04
2023-03-06T23:36:14.194Z,60.07
2023-03-06T23:39:16.681Z,59.97
2023-03-06T23:42:19.132Z,60.02
2023-03-06T23:45:20.965Z,59.96
2023-03-06T23:48:22.509Z,59.94
2023-03-06T23:51:24.242Z,59.90
2023-03-06T23:54:25.747Z,59.93
2023-03-06T23:57:27.246Z,59.96
